sensor_id;sensor_type;location;lat;lon;timestamp;P1;durP1;ratioP1;P2;durP2;ratioP2
22435;SDS011;11385;50.822;4.324;2023-03-01T00:00:00;12.45;;;7.40;;
22435;SDS011;11385;50.822;4.324;2023-03-01T00:02:27;12.60;;;7.00;;
22435;SDS011;11385;50.822;4.324;2023-03-01T00:04:53;11.83;;;6.90;;
22435;SDS011;11385;50.822;4.324;2023-03-01T00:07:20;10.10;;;7.03;;
22435;SDS011;11385;50.822;4.324;2023-03-01T00:09:46;10.70;;;7.05;;
22435;SDS011;11385;50.822;4.324;2023-03-01T00:12:13;10.45;;;6.95;;
22435;SDS011;11385;50.822;4.324;2023-03-01T00:14:40;8.88;;;6.83;;
22435;SDS011;11385;50.822;4.324;2023-03-01T00:17:07;10.00;;;7.42;;
22435;SDS011;11385;50.822;4.324;2023-03-01T00:19:34;10.93;;;7.20;;
22435;SDS011;11385;50.822;4.324;2023-03-01T00:22:00;10.95;;;7.45;;
22435;SDS011;11385;50.822;4.324;2023-03-01T00:24:27;10.53;;;7.80;;
22435;SDS011;11385;50.822;4.324;2023-03-01T00:26:54;9.43;;;7.42;;
22435;SDS011;11385;50.822;4.324;2023-03-01T00:29:23;8.80;;;7.28;;
22435;SDS011;11385;50.822;4.324;2023-03-01T00:31:50;9.55;;;6.67;;
22435;SDS011;11385;50.822;4.324;2023-03-01T00:34:17;10.32;;;7.20;;
22435;SDS011;11385;50.822;4.324;2023-03-01T00:36:44;11.93;;;7.70;;
22435;SDS011;11385;50.822;4.324;2023-03-01T00:39:12;11.83;;;7.62;;
22435;SDS011;11385;50.822;4.324;2023-03-01T00:41:40;12.18;;;6.90;;
22435;SDS011;11385;50.822;4.324;2023-03-01T00:44:08;10.20;;;7.45;;
22435;SDS011;11385;50.822;4.324;2023-03-01T00:46:35;10.03;;;7.10;;
22435;SDS011;11385;50.822;4.324;2023-03-01T00:49:02;12.18;;;7.62;;
22435;SDS011;11385;50.822;4.324;2023-03-01T00:51:30;11.15;;;7.58;;
22435;SDS011;11385;50.822;4.324;2023-03-01T00:53:57;13.03;;;8.38;;
22435;SDS011;11385;50.822;4.324;2023-03-01T00:56:26;10.20;;;7.05;;
22435;SDS011;11385;50.822;4.324;2023-03-01T00:58:53;10.78;;;7.58;;
22435;SDS011;11385;50.822;4.324;2023-03-01T01:01:21;13.25;;;8.13;;
22435;SDS011;11385;50.822;4.324;2023-03-01T01:03:54;10.40;;;7.17;;
22435;SDS011;11385;50.822;4.324;2023-03-01T01:06:24;9.53;;;7.37;;
22435;SDS011;11385;50.822;4.324;2023-03-01T01:08:54;12.70;;;7.97;;
22435;SDS011;11385;50.822;4.324;2023-03-01T01:11:22;12.23;;;7.65;;
22435;SDS011;11385;50.822;4.324;2023-03-01T01:13:51;12.43;;;7.58;;
22435;SDS011;11385;50.822;4.324;2023-03-01T01:16:19;11.35;;;8.10;;
22435;SDS011;11385;50.822;4.324;2023-03-01T01:18:47;11.88;;;7.55;;
22435;SDS011;11385;50.822;4.324;2023-03-01T01:21:18;10.88;;;6.92;;
22435;SDS011;11385;50.822;4.324;2023-03-01T01:23:45;10.48;;;7.85;;
22435;SDS011;11385;50.822;4.324;2023-03-01T01:26:17;14.95;;;7.40;;
22435;SDS011;11385;50.822;4.324;2023-03-01T01:28:45;10.60;;;7.12;;
22435;SDS011;11385;50.822;4.324;2023-03-01T01:31:12;11.90;;;8.30;;
22435;SDS011;11385;50.822;4.324;2023-03-01T01:33:39;11.03;;;7.30;;
22435;SDS011;11385;50.822;4.324;2023-03-01T01:36:06;11.57;;;7.90;;
22435;SDS011;11385;50.822;4.324;2023-03-01T01:38:34;13.68;;;9.05;;
22435;SDS011;11385;50.822;4.324;2023-03-01T01:41:02;12.07;;;7.30;;
22435;SDS011;11385;50.822;4.324;2023-03-01T01:43:31;9.40;;;7.12;;
22435;SDS011;11385;50.822;4.324;2023-03-01T01:46:02;12.85;;;7.37;;
22435;SDS011;11385;50.822;4.324;2023-03-01T01:48:37;11.08;;;7.67;;
22435;SDS011;11385;50.822;4.324;2023-03-01T01:51:06;12.95;;;7.47;;
22435;SDS011;11385;50.822;4.324;2023-03-01T01:53:35;11.68;;;7.22;;
22435;SDS011;11385;50.822;4.324;2023-03-01T01:56:05;13.75;;;7.03;;
22435;SDS011;11385;50.822;4.324;2023-03-01T01:58:34;11.28;;;7.15;;
22435;SDS011;11385;50.822;4.324;2023-03-01T02:01:04;10.50;;;6.80;;
22435;SDS011;11385;50.822;4.324;2023-03-01T02:03:31;10.25;;;7.12;;
22435;SDS011;11385;50.822;4.324;2023-03-01T02:06:03;10.63;;;7.15;;
22435;SDS011;11385;50.822;4.324;2023-03-01T02:08:33;10.65;;;6.70;;
22435;SDS011;11385;50.822;4.324;2023-03-01T02:11:03;13.88;;;7.00;;
22435;SDS011;11385;50.822;4.324;2023-03-01T02:13:30;8.95;;;6.05;;
22435;SDS011;11385;50.822;4.324;2023-03-01T02:15:58;11.35;;;7.60;;
22435;SDS011;11385;50.822;4.324;2023-03-01T02:18:27;9.40;;;6.55;;
22435;SDS011;11385;50.822;4.324;2023-03-01T02:20:58;13.55;;;8.10;;
22435;SDS011;11385;50.822;4.324;2023-03-01T02:23:41;10.65;;;7.17;;
22435;SDS011;11385;50.822;4.324;2023-03-01T02:26:10;12.60;;;7.70;;
22435;SDS011;11385;50.822;4.324;2023-03-01T02:28:52;12.80;;;7.65;;
22435;SDS011;11385;50.822;4.324;2023-03-01T02:31:19;10.48;;;7.65;;
22435;SDS011;11385;50.822;4.324;2023-03-01T02:33:53;11.55;;;7.33;;
22435;SDS011;11385;50.822;4.324;2023-03-01T02:36:23;11.68;;;8.18;;
22435;SDS011;11385;50.822;4.324;2023-03-01T02:38:54;13.90;;;7.50;;
22435;SDS011;11385;50.822;4.324;2023-03-01T02:41:23;13.03;;;7.37;;
22435;SDS011;11385;50.822;4.324;2023-03-01T02:43:53;11.50;;;7.40;;
22435;SDS011;11385;50.822;4.324;2023-03-01T02:46:23;11.65;;;7.17;;
22435;SDS011;11385;50.822;4.324;2023-03-01T02:48:53;11.05;;;7.33;;
22435;SDS011;11385;50.822;4.324;2023-03-01T02:51:28;10.18;;;6.70;;
22435;SDS011;11385;50.822;4.324;2023-03-01T02:54:15;13.15;;;7.83;;
22435;SDS011;11385;50.822;4.324;2023-03-01T02:56:59;12.93;;;7.90;;
22435;SDS011;11385;50.822;4.324;2023-03-01T02:59:28;10.25;;;7.50;;
22435;SDS011;11385;50.822;4.324;2023-03-01T03:01:56;12.35;;;7.78;;
22435;SDS011;11385;50.822;4.324;2023-03-01T03:04:23;9.13;;;7.53;;
22435;SDS011;11385;50.822;4.324;2023-03-01T03:06:50;10.88;;;7.85;;
22435;SDS011;11385;50.822;4.324;2023-03-01T03:09:17;11.57;;;7.05;;
22435;SDS011;11385;50.822;4.324;2023-03-01T03:11:44;9.78;;;7.03;;
22435;SDS011;11385;50.822;4.324;2023-03-01T03:14:12;12.47;;;7.95;;
22435;SDS011;11385;50.822;4.324;2023-03-01T03:16:41;11.75;;;8.60;;
22435;SDS011;11385;50.822;4.324;2023-03-01T03:19:10;12.82;;;7.92;;
22435;SDS011;11385;50.822;4.324;2023-03-01T03:21:38;11.00;;;7.97;;
22435;SDS011;11385;50.822;4.324;2023-03-01T03:24:05;12.25;;;7.60;;
22435;SDS011;11385;50.822;4.324;2023-03-01T03:26:32;13.65;;;7.45;;
22435;SDS011;11385;50.822;4.324;2023-03-01T03:28:58;10.53;;;7.55;;
22435;SDS011;11385;50.822;4.324;2023-03-01T03:31:25;12.03;;;7.40;;
22435;SDS011;11385;50.822;4.324;2023-03-01T03:33:53;14.58;;;7.72;;
22435;SDS011;11385;50.822;4.324;2023-03-01T03:36:21;11.43;;;7.62;;
22435;SDS011;11385;50.822;4.324;2023-03-01T03:38:50;11.25;;;7.70;;
22435;SDS011;11385;50.822;4.324;2023-03-01T03:41:17;11.15;;;7.92;;
22435;SDS011;11385;50.822;4.324;2023-03-01T03:43:44;12.98;;;8.60;;
22435;SDS011;11385;50.822;4.324;2023-03-01T03:46:11;11.90;;;7.85;;
22435;SDS011;11385;50.822;4.324;2023-03-01T03:48:39;12.28;;;7.53;;
22435;SDS011;11385;50.822;4.324;2023-03-01T03:51:09;12.40;;;8.15;;
22435;SDS011;11385;50.822;4.324;2023-03-01T03:53:37;10.10;;;7.42;;
22435;SDS011;11385;50.822;4.324;2023-03-01T03:56:05;11.53;;;8.00;;
22435;SDS011;11385;50.822;4.324;2023-03-01T03:58:32;11.45;;;7.78;;
22435;SDS011;11385;50.822;4.324;2023-03-01T04:00:59;11.78;;;8.50;;
22435;SDS011;11385;50.822;4.324;2023-03-01T04:03:27;14.05;;;8.20;;
22435;SDS011;11385;50.822;4.324;2023-03-01T04:05:56;14.13;;;8.45;;
22435;SDS011;11385;50.822;4.324;2023-03-01T04:08:24;15.40;;;7.78;;
22435;SDS011;11385;50.822;4.324;2023-03-01T04:10:51;11.73;;;7.85;;
22435;SDS011;11385;50.822;4.324;2023-03-01T04:13:22;16.07;;;7.90;;
22435;SDS011;11385;50.822;4.324;2023-03-01T04:15:51;12.23;;;7.80;;
22435;SDS011;11385;50.822;4.324;2023-03-01T04:18:19;10.82;;;7.85;;
22435;SDS011;11385;50.822;4.324;2023-03-01T04:20:48;11.10;;;8.15;;
22435;SDS011;11385;50.822;4.324;2023-03-01T04:23:18;13.28;;;8.60;;
22435;SDS011;11385;50.822;4.324;2023-03-01T04:25:47;12.05;;;8.45;;
22435;SDS011;11385;50.822;4.324;2023-03-01T04:28:20;12.80;;;8.00;;
22435;SDS011;11385;50.822;4.324;2023-03-01T04:30:50;13.18;;;8.58;;
22435;SDS011;11385;50.822;4.324;2023-03-01T04:33:18;14.40;;;8.25;;
22435;SDS011;11385;50.822;4.324;2023-03-01T04:35:45;11.65;;;8.40;;
22435;SDS011;11385;50.822;4.324;2023-03-01T04:38:13;15.55;;;7.80;;
22435;SDS011;11385;50.822;4.324;2023-03-01T04:40:41;10.00;;;7.42;;
22435;SDS011;11385;50.822;4.324;2023-03-01T04:43:08;13.80;;;8.25;;
22435;SDS011;11385;50.822;4.324;2023-03-01T04:45:37;11.60;;;8.45;;
22435;SDS011;11385;50.822;4.324;2023-03-01T04:48:03;11.10;;;8.45;;
22435;SDS011;11385;50.822;4.324;2023-03-01T04:50:30;13.60;;;8.20;;
22435;SDS011;11385;50.822;4.324;2023-03-01T04:52:57;11.57;;;8.50;;
22435;SDS011;11385;50.822;4.324;2023-03-01T04:55:25;14.60;;;7.97;;
22435;SDS011;11385;50.822;4.324;2023-03-01T04:57:53;11.30;;;7.53;;
22435;SDS011;11385;50.822;4.324;2023-03-01T05:00:20;11.85;;;7.90;;
22435;SDS011;11385;50.822;4.324;2023-03-01T05:02:48;11.93;;;8.15;;
22435;SDS011;11385;50.822;4.324;2023-03-01T05:05:25;13.40;;;8.45;;
22435;SDS011;11385;50.822;4.324;2023-03-01T05:07:55;11.88;;;9.53;;
22435;SDS011;11385;50.822;4.324;2023-03-01T05:10:23;10.08;;;7.60;;
22435;SDS011;11385;50.822;4.324;2023-03-01T05:12:50;13.05;;;8.13;;
22435;SDS011;11385;50.822;4.324;2023-03-01T05:15:18;11.48;;;8.30;;
22435;SDS011;11385;50.822;4.324;2023-03-01T05:17:48;13.70;;;8.10;;
22435;SDS011;11385;50.822;4.324;2023-03-01T05:20:15;14.00;;;7.80;;
22435;SDS011;11385;50.822;4.324;2023-03-01T05:22:41;11.45;;;8.33;;
22435;SDS011;11385;50.822;4.324;2023-03-01T05:25:08;13.08;;;8.08;;
22435;SDS011;11385;50.822;4.324;2023-03-01T05:27:35;11.83;;;8.45;;
22435;SDS011;11385;50.822;4.324;2023-03-01T05:30:03;13.18;;;8.95;;
22435;SDS011;11385;50.822;4.324;2023-03-01T05:32:32;14.43;;;8.63;;
22435;SDS011;11385;50.822;4.324;2023-03-01T05:34:59;12.80;;;8.23;;
22435;SDS011;11385;50.822;4.324;2023-03-01T05:37:25;12.90;;;8.63;;
22435;SDS011;11385;50.822;4.324;2023-03-01T05:39:52;15.55;;;9.23;;
22435;SDS011;11385;50.822;4.324;2023-03-01T05:42:18;13.45;;;8.58;;
22435;SDS011;11385;50.822;4.324;2023-03-01T05:44:45;13.05;;;8.55;;
22435;SDS011;11385;50.822;4.324;2023-03-01T05:47:12;14.43;;;8.45;;
22435;SDS011;11385;50.822;4.324;2023-03-01T05:49:38;12.70;;;8.45;;
22435;SDS011;11385;50.822;4.324;2023-03-01T05:52:05;12.78;;;8.08;;
22435;SDS011;11385;50.822;4.324;2023-03-01T05:54:31;14.33;;;9.15;;
22435;SDS011;11385;50.822;4.324;2023-03-01T05:56:58;13.75;;;8.73;;
22435;SDS011;11385;50.822;4.324;2023-03-01T05:59:25;11.10;;;8.13;;
22435;SDS011;11385;50.822;4.324;2023-03-01T06:01:51;12.90;;;8.20;;
22435;SDS011;11385;50.822;4.324;2023-03-01T06:04:19;13.10;;;9.48;;
22435;SDS011;11385;50.822;4.324;2023-03-01T06:06:46;12.35;;;8.28;;
22435;SDS011;11385;50.822;4.324;2023-03-01T06:09:13;12.28;;;8.95;;
22435;SDS011;11385;50.822;4.324;2023-03-01T06:11:39;11.15;;;7.95;;
22435;SDS011;11385;50.822;4.324;2023-03-01T06:14:07;16.37;;;8.55;;
22435;SDS011;11385;50.822;4.324;2023-03-01T06:16:36;12.65;;;8.80;;
22435;SDS011;11385;50.822;4.324;2023-03-01T06:19:02;13.25;;;8.28;;
22435;SDS011;11385;50.822;4.324;2023-03-01T06:21:29;14.50;;;8.50;;
22435;SDS011;11385;50.822;4.324;2023-03-01T06:23:56;12.82;;;8.73;;
22435;SDS011;11385;50.822;4.324;2023-03-01T06:26:22;11.35;;;8.30;;
22435;SDS011;11385;50.822;4.324;2023-03-01T06:28:49;12.68;;;8.15;;
22435;SDS011;11385;50.822;4.324;2023-03-01T06:31:16;13.30;;;9.10;;
22435;SDS011;11385;50.822;4.324;2023-03-01T06:33:43;13.25;;;8.78;;
22435;SDS011;11385;50.822;4.324;2023-03-01T06:36:10;13.03;;;8.45;;
22435;SDS011;11385;50.822;4.324;2023-03-01T06:38:37;11.97;;;8.55;;
22435;SDS011;11385;50.822;4.324;2023-03-01T06:41:06;15.05;;;9.10;;
22435;SDS011;11385;50.822;4.324;2023-03-01T06:43:32;12.03;;;8.70;;
22435;SDS011;11385;50.822;4.324;2023-03-01T06:45:59;13.88;;;8.98;;
22435;SDS011;11385;50.822;4.324;2023-03-01T06:48:26;12.55;;;7.92;;
22435;SDS011;11385;50.822;4.324;2023-03-01T06:50:53;12.98;;;9.08;;
22435;SDS011;11385;50.822;4.324;2023-03-01T06:53:20;14.80;;;8.05;;
22435;SDS011;11385;50.822;4.324;2023-03-01T06:55:47;14.38;;;9.30;;
22435;SDS011;11385;50.822;4.324;2023-03-01T06:58:13;12.80;;;8.58;;
22435;SDS011;11385;50.822;4.324;2023-03-01T07:00:40;12.45;;;8.85;;
22435;SDS011;11385;50.822;4.324;2023-03-01T07:03:09;16.70;;;9.48;;
22435;SDS011;11385;50.822;4.324;2023-03-01T07:05:35;17.42;;;9.73;;
22435;SDS011;11385;50.822;4.324;2023-03-01T07:08:05;12.88;;;8.60;;
22435;SDS011;11385;50.822;4.324;2023-03-01T07:10:32;16.93;;;12.37;;
22435;SDS011;11385;50.822;4.324;2023-03-01T07:12:58;15.20;;;9.00;;
22435;SDS011;11385;50.822;4.324;2023-03-01T07:15:26;14.15;;;8.63;;
22435;SDS011;11385;50.822;4.324;2023-03-01T07:17:53;13.35;;;8.50;;
22435;SDS011;11385;50.822;4.324;2023-03-01T07:20:20;14.78;;;9.28;;
22435;SDS011;11385;50.822;4.324;2023-03-01T07:22:49;13.70;;;9.20;;
22435;SDS011;11385;50.822;4.324;2023-03-01T07:25:16;13.18;;;8.45;;
22435;SDS011;11385;50.822;4.324;2023-03-01T07:27:43;16.60;;;9.20;;
22435;SDS011;11385;50.822;4.324;2023-03-01T07:30:11;12.60;;;8.35;;
22435;SDS011;11385;50.822;4.324;2023-03-01T07:32:38;14.87;;;9.40;;
22435;SDS011;11385;50.822;4.324;2023-03-01T07:35:04;14.15;;;9.60;;
22435;SDS011;11385;50.822;4.324;2023-03-01T07:37:31;18.57;;;9.45;;
22435;SDS011;11385;50.822;4.324;2023-03-01T07:39:58;13.15;;;8.90;;
22435;SDS011;11385;50.822;4.324;2023-03-01T07:42:25;16.30;;;9.50;;
22435;SDS011;11385;50.822;4.324;2023-03-01T07:44:51;12.78;;;9.93;;
22435;SDS011;11385;50.822;4.324;2023-03-01T07:47:18;17.73;;;9.85;;
22435;SDS011;11385;50.822;4.324;2023-03-01T07:49:44;14.03;;;9.53;;
22435;SDS011;11385;50.822;4.324;2023-03-01T07:52:11;16.27;;;9.60;;
22435;SDS011;11385;50.822;4.324;2023-03-01T07:54:38;15.23;;;10.25;;
22435;SDS011;11385;50.822;4.324;2023-03-01T07:57:05;15.80;;;10.10;;
22435;SDS011;11385;50.822;4.324;2023-03-01T07:59:31;15.20;;;9.58;;
22435;SDS011;11385;50.822;4.324;2023-03-01T08:01:59;15.15;;;9.88;;
22435;SDS011;11385;50.822;4.324;2023-03-01T08:04:25;15.58;;;9.20;;
22435;SDS011;11385;50.822;4.324;2023-03-01T08:06:53;15.25;;;9.75;;
22435;SDS011;11385;50.822;4.324;2023-03-01T08:09:20;13.93;;;10.32;;
22435;SDS011;11385;50.822;4.324;2023-03-01T08:11:47;14.38;;;9.90;;
22435;SDS011;11385;50.822;4.324;2023-03-01T08:14:14;18.52;;;9.95;;
22435;SDS011;11385;50.822;4.324;2023-03-01T08:16:41;13.13;;;9.78;;
22435;SDS011;11385;50.822;4.324;2023-03-01T08:19:08;16.80;;;9.98;;
22435;SDS011;11385;50.822;4.324;2023-03-01T08:21:37;16.05;;;9.85;;
22435;SDS011;11385;50.822;4.324;2023-03-01T08:24:04;17.07;;;9.38;;
22435;SDS011;11385;50.822;4.324;2023-03-01T08:26:32;15.58;;;10.50;;
22435;SDS011;11385;50.822;4.324;2023-03-01T08:28:59;17.70;;;9.90;;
22435;SDS011;11385;50.822;4.324;2023-03-01T08:31:30;14.45;;;9.65;;
22435;SDS011;11385;50.822;4.324;2023-03-01T08:34:01;17.12;;;9.80;;
22435;SDS011;11385;50.822;4.324;2023-03-01T08:36:33;16.82;;;9.75;;
22435;SDS011;11385;50.822;4.324;2023-03-01T08:39:03;17.23;;;9.93;;
22435;SDS011;11385;50.822;4.324;2023-03-01T08:41:30;15.45;;;9.63;;
22435;SDS011;11385;50.822;4.324;2023-03-01T08:43:57;16.12;;;10.53;;
22435;SDS011;11385;50.822;4.324;2023-03-01T08:46:26;15.60;;;10.28;;
22435;SDS011;11385;50.822;4.324;2023-03-01T08:48:55;16.25;;;9.75;;
22435;SDS011;11385;50.822;4.324;2023-03-01T08:51:22;13.93;;;9.80;;
22435;SDS011;11385;50.822;4.324;2023-03-01T08:53:49;17.32;;;9.50;;
22435;SDS011;11385;50.822;4.324;2023-03-01T08:56:16;13.83;;;9.73;;
22435;SDS011;11385;50.822;4.324;2023-03-01T08:58:44;17.42;;;10.28;;
22435;SDS011;11385;50.822;4.324;2023-03-01T09:01:13;14.50;;;9.50;;
22435;SDS011;11385;50.822;4.324;2023-03-01T09:03:42;15.63;;;9.83;;
22435;SDS011;11385;50.822;4.324;2023-03-01T09:06:11;17.32;;;10.68;;
22435;SDS011;11385;50.822;4.324;2023-03-01T09:08:38;13.50;;;8.83;;
22435;SDS011;11385;50.822;4.324;2023-03-01T09:11:07;17.30;;;10.93;;
22435;SDS011;11385;50.822;4.324;2023-03-01T09:13:35;16.23;;;9.83;;
22435;SDS011;11385;50.822;4.324;2023-03-01T09:16:03;18.27;;;9.40;;
22435;SDS011;11385;50.822;4.324;2023-03-01T09:18:31;15.80;;;10.45;;
22435;SDS011;11385;50.822;4.324;2023-03-01T09:21:02;17.07;;;9.70;;
22435;SDS011;11385;50.822;4.324;2023-03-01T09:23:33;20.60;;;10.50;;
22435;SDS011;11385;50.822;4.324;2023-03-01T09:26:05;17.42;;;10.28;;
22435;SDS011;11385;50.822;4.324;2023-03-01T09:28:34;18.25;;;10.70;;
22435;SDS011;11385;50.822;4.324;2023-03-01T09:31:02;21.95;;;10.43;;
22435;SDS011;11385;50.822;4.324;2023-03-01T09:33:30;15.70;;;10.90;;
22435;SDS011;11385;50.822;4.324;2023-03-01T09:36:00;13.78;;;10.48;;
22435;SDS011;11385;50.822;4.324;2023-03-01T09:40:56;14.33;;;10.38;;
22435;SDS011;11385;50.822;4.324;2023-03-01T09:43:25;16.65;;;10.08;;
22435;SDS011;11385;50.822;4.324;2023-03-01T09:45:55;14.73;;;10.13;;
22435;SDS011;11385;50.822;4.324;2023-03-01T09:48:26;17.85;;;10.18;;
22435;SDS011;11385;50.822;4.324;2023-03-01T09:50:57;16.23;;;10.28;;
22435;SDS011;11385;50.822;4.324;2023-03-01T09:53:27;16.50;;;10.78;;
22435;SDS011;11385;50.822;4.324;2023-03-01T09:56:02;14.50;;;10.65;;
22435;SDS011;11385;50.822;4.324;2023-03-01T09:59:08;18.95;;;11.88;;
22435;SDS011;11385;50.822;4.324;2023-03-01T10:05:12;18.87;;;11.45;;
22435;SDS011;11385;50.822;4.324;2023-03-01T10:06:52;15.65;;;10.68;;
22435;SDS011;11385;50.822;4.324;2023-03-01T10:09:22;17.27;;;11.48;;
22435;SDS011;11385;50.822;4.324;2023-03-01T10:11:50;17.55;;;11.05;;
22435;SDS011;11385;50.822;4.324;2023-03-01T10:14:27;16.67;;;10.60;;
22435;SDS011;11385;50.822;4.324;2023-03-01T10:17:04;16.17;;;11.15;;
22435;SDS011;11385;50.822;4.324;2023-03-01T10:19:36;15.18;;;11.68;;
22435;SDS011;11385;50.822;4.324;2023-03-01T10:22:16;13.85;;;11.05;;
22435;SDS011;11385;50.822;4.324;2023-03-01T10:24:48;16.27;;;11.15;;
22435;SDS011;11385;50.822;4.324;2023-03-01T10:27:19;14.73;;;11.60;;
22435;SDS011;11385;50.822;4.324;2023-03-01T10:29:54;15.38;;;11.12;;
22435;SDS011;11385;50.822;4.324;2023-03-01T10:32:36;22.73;;;13.98;;
22435;SDS011;11385;50.822;4.324;2023-03-01T10:38:15;19.48;;;12.45;;
22435;SDS011;11385;50.822;4.324;2023-03-01T10:40:30;16.35;;;12.50;;
22435;SDS011;11385;50.822;4.324;2023-03-01T10:42:58;15.78;;;11.15;;
22435;SDS011;11385;50.822;4.324;2023-03-01T10:45:37;14.75;;;10.38;;
22435;SDS011;11385;50.822;4.324;2023-03-01T10:48:21;14.68;;;9.95;;
22435;SDS011;11385;50.822;4.324;2023-03-01T10:51:05;18.40;;;11.20;;
22435;SDS011;11385;50.822;4.324;2023-03-01T10:53:34;15.98;;;11.38;;
22435;SDS011;11385;50.822;4.324;2023-03-01T10:56:06;17.42;;;10.98;;
22435;SDS011;11385;50.822;4.324;2023-03-01T10:58:36;18.52;;;10.80;;
22435;SDS011;11385;50.822;4.324;2023-03-01T11:01:36;16.93;;;11.03;;
22435;SDS011;11385;50.822;4.324;2023-03-01T11:04:14;14.63;;;10.30;;
22435;SDS011;11385;50.822;4.324;2023-03-01T11:06:42;14.25;;;10.32;;
22435;SDS011;11385;50.822;4.324;2023-03-01T11:09:14;13.32;;;10.08;;
22435;SDS011;11385;50.822;4.324;2023-03-01T11:11:42;17.42;;;11.43;;
22435;SDS011;11385;50.822;4.324;2023-03-01T11:16:44;19.65;;;12.78;;
22435;SDS011;11385;50.822;4.324;2023-03-01T11:19:16;17.90;;;12.07;;
22435;SDS011;11385;50.822;4.324;2023-03-01T11:22:03;15.78;;;11.08;;
22435;SDS011;11385;50.822;4.324;2023-03-01T11:24:43;13.00;;;9.55;;
22435;SDS011;11385;50.822;4.324;2023-03-01T11:27:19;15.05;;;11.25;;
22435;SDS011;11385;50.822;4.324;2023-03-01T11:29:51;17.17;;;10.05;;
22435;SDS011;11385;50.822;4.324;2023-03-01T11:32:32;15.27;;;9.97;;
22435;SDS011;11385;50.822;4.324;2023-03-01T11:35:04;15.78;;;9.85;;
22435;SDS011;11385;50.822;4.324;2023-03-01T11:37:43;15.93;;;10.93;;
22435;SDS011;11385;50.822;4.324;2023-03-01T11:40:16;14.45;;;9.25;;
22435;SDS011;11385;50.822;4.324;2023-03-01T11:42:48;16.02;;;9.83;;
22435;SDS011;11385;50.822;4.324;2023-03-01T11:45:17;15.03;;;9.58;;
22435;SDS011;11385;50.822;4.324;2023-03-01T11:47:54;14.25;;;9.40;;
22435;SDS011;11385;50.822;4.324;2023-03-01T11:50:44;14.80;;;9.68;;
22435;SDS011;11385;50.822;4.324;2023-03-01T11:53:21;14.87;;;10.32;;
22435;SDS011;11385;50.822;4.324;2023-03-01T11:55:55;14.98;;;10.25;;
22435;SDS011;11385;50.822;4.324;2023-03-01T11:58:35;14.20;;;9.58;;
22435;SDS011;11385;50.822;4.324;2023-03-01T12:01:09;11.78;;;9.33;;
22435;SDS011;11385;50.822;4.324;2023-03-01T12:03:48;14.70;;;8.83;;
22435;SDS011;11385;50.822;4.324;2023-03-01T12:09:02;13.35;;;8.90;;
22435;SDS011;11385;50.822;4.324;2023-03-01T12:11:41;11.80;;;8.80;;
22435;SDS011;11385;50.822;4.324;2023-03-01T12:14:21;12.28;;;8.70;;
22435;SDS011;11385;50.822;4.324;2023-03-01T12:20:12;14.15;;;8.15;;
22435;SDS011;11385;50.822;4.324;2023-03-01T12:22:55;12.95;;;8.60;;
22435;SDS011;11385;50.822;4.324;2023-03-01T12:26:34;11.30;;;8.20;;
22435;SDS011;11385;50.822;4.324;2023-03-01T12:28:24;12.05;;;7.85;;
22435;SDS011;11385;50.822;4.324;2023-03-01T12:33:34;9.35;;;6.78;;
22435;SDS011;11385;50.822;4.324;2023-03-01T12:36:20;11.97;;;7.85;;
22435;SDS011;11385;50.822;4.324;2023-03-01T12:38:49;11.18;;;8.48;;
22435;SDS011;11385;50.822;4.324;2023-03-01T12:41:23;10.58;;;8.00;;
22435;SDS011;11385;50.822;4.324;2023-03-01T12:45:02;11.93;;;7.33;;
22435;SDS011;11385;50.822;4.324;2023-03-01T12:46:48;12.50;;;7.80;;
22435;SDS011;11385;50.822;4.324;2023-03-01T12:49:20;10.72;;;7.95;;
22435;SDS011;11385;50.822;4.324;2023-03-01T12:51:56;11.68;;;8.00;;
22435;SDS011;11385;50.822;4.324;2023-03-01T12:54:28;15.80;;;8.73;;
22435;SDS011;11385;50.822;4.324;2023-03-01T12:56:58;14.00;;;8.58;;
22435;SDS011;11385;50.822;4.324;2023-03-01T13:02:00;11.45;;;8.00;;
22435;SDS011;11385;50.822;4.324;2023-03-01T13:07:35;13.35;;;8.13;;
22435;SDS011;11385;50.822;4.324;2023-03-01T13:13:03;11.97;;;7.90;;
22435;SDS011;11385;50.822;4.324;2023-03-01T13:15:36;12.95;;;8.53;;
22435;SDS011;11385;50.822;4.324;2023-03-01T13:20:55;11.57;;;7.72;;
22435;SDS011;11385;50.822;4.324;2023-03-01T13:23:25;13.53;;;8.53;;
22435;SDS011;11385;50.822;4.324;2023-03-01T13:28:47;14.15;;;7.83;;
22435;SDS011;11385;50.822;4.324;2023-03-01T13:32:21;15.18;;;8.40;;
22435;SDS011;11385;50.822;4.324;2023-03-01T13:34:39;11.65;;;7.87;;
22435;SDS011;11385;50.822;4.324;2023-03-01T13:37:09;11.85;;;7.87;;
22435;SDS011;11385;50.822;4.324;2023-03-01T13:39:39;11.03;;;6.97;;
22435;SDS011;11385;50.822;4.324;2023-03-01T13:42:28;12.33;;;8.13;;
22435;SDS011;11385;50.822;4.324;2023-03-01T13:44:41;10.60;;;7.67;;
22435;SDS011;11385;50.822;4.324;2023-03-01T13:49:47;11.38;;;7.83;;
22435;SDS011;11385;50.822;4.324;2023-03-01T13:55:18;16.85;;;7.87;;
22435;SDS011;11385;50.822;4.324;2023-03-01T13:57:48;15.20;;;8.65;;
22435;SDS011;11385;50.822;4.324;2023-03-01T14:00:26;13.85;;;8.05;;
22435;SDS011;11385;50.822;4.324;2023-03-01T14:03:01;10.50;;;7.60;;
22435;SDS011;11385;50.822;4.324;2023-03-01T14:05:31;12.15;;;7.55;;
22435;SDS011;11385;50.822;4.324;2023-03-01T14:07:59;14.07;;;8.10;;
22435;SDS011;11385;50.822;4.324;2023-03-01T14:10:28;12.73;;;8.93;;
22435;SDS011;11385;50.822;4.324;2023-03-01T14:13:03;12.93;;;8.25;;
22435;SDS011;11385;50.822;4.324;2023-03-01T14:15:48;13.15;;;9.55;;
22435;SDS011;11385;50.822;4.324;2023-03-01T14:18:18;14.18;;;8.38;;
22435;SDS011;11385;50.822;4.324;2023-03-01T14:20:46;13.75;;;8.00;;
22435;SDS011;11385;50.822;4.324;2023-03-01T14:23:16;11.70;;;7.97;;
22435;SDS011;11385;50.822;4.324;2023-03-01T14:25:46;17.55;;;8.10;;
22435;SDS011;11385;50.822;4.324;2023-03-01T14:28:16;16.37;;;8.93;;
22435;SDS011;11385;50.822;4.324;2023-03-01T14:30:50;13.38;;;7.97;;
22435;SDS011;11385;50.822;4.324;2023-03-01T14:33:27;11.05;;;7.42;;
22435;SDS011;11385;50.822;4.324;2023-03-01T14:36:11;11.60;;;8.23;;
22435;SDS011;11385;50.822;4.324;2023-03-01T14:38:42;12.75;;;8.68;;
22435;SDS011;11385;50.822;4.324;2023-03-01T14:41:14;11.33;;;8.58;;
22435;SDS011;11385;50.822;4.324;2023-03-01T14:43:45;10.85;;;7.87;;
22435;SDS011;11385;50.822;4.324;2023-03-01T14:48:49;11.28;;;8.15;;
22435;SDS011;11385;50.822;4.324;2023-03-01T14:51:17;13.72;;;8.55;;
22435;SDS011;11385;50.822;4.324;2023-03-01T14:53:44;12.80;;;8.18;;
22435;SDS011;11385;50.822;4.324;2023-03-01T14:56:13;13.83;;;8.70;;
22435;SDS011;11385;50.822;4.324;2023-03-01T14:58:42;13.93;;;8.55;;
22435;SDS011;11385;50.822;4.324;2023-03-01T15:01:10;13.22;;;8.30;;
22435;SDS011;11385;50.822;4.324;2023-03-01T15:03:42;12.07;;;8.73;;
22435;SDS011;11385;50.822;4.324;2023-03-01T15:06:11;16.17;;;9.35;;
22435;SDS011;11385;50.822;4.324;2023-03-01T15:08:42;12.43;;;9.50;;
22435;SDS011;11385;50.822;4.324;2023-03-01T15:13:57;14.13;;;9.18;;
22435;SDS011;11385;50.822;4.324;2023-03-01T15:16:26;13.25;;;8.48;;
22435;SDS011;11385;50.822;4.324;2023-03-01T15:18:58;12.88;;;8.95;;
22435;SDS011;11385;50.822;4.324;2023-03-01T15:24:28;14.50;;;8.90;;
22435;SDS011;11385;50.822;4.324;2023-03-01T15:26:58;11.10;;;7.78;;
22435;SDS011;11385;50.822;4.324;2023-03-01T15:29:30;15.32;;;8.20;;
22435;SDS011;11385;50.822;4.324;2023-03-01T15:32:00;11.00;;;8.13;;
22435;SDS011;11385;50.822;4.324;2023-03-01T15:34:32;12.82;;;8.38;;
22435;SDS011;11385;50.822;4.324;2023-03-01T15:37:03;13.38;;;7.92;;